createdAt,value
2023-04-01T00:01:50.606Z,19.33
2023-04-01T00:04:17.798Z,19.30
2023-04-01T00:06:44.834Z,25.50
2023-04-01T00:09:11.712Z,26.35
2023-04-01T00:11:39.531Z,30.20
2023-04-01T00:14:07.569Z,28.15
2023-04-01T00:16:34.842Z,24.77
2023-04-01T00:19:02.030Z,29.85
2023-04-01T00:21:29.199Z,26.33
2023-04-01T00:23:57.012Z,26.00
2023-04-01T00:26:25.633Z,24.27
2023-04-01T00:28:52.676Z,23.38
2023-04-01T00:31:20.085Z,20.27
2023-04-01T00:33:47.640Z,26.83
2023-04-01T00:36:17.380Z,24.67
2023-04-01T00:38:45.058Z,30.92
2023-04-01T00:41:15.826Z,24.08
2023-04-01T00:43:45.664Z,23.23
2023-04-01T00:46:13.228Z,24.88
2023-04-01T00:48:45.661Z,25.30
2023-04-01T00:51:18.615Z,25.58
2023-04-01T00:53:50.964Z,24.17
2023-04-01T00:56:28.998Z,17.70
2023-04-01T00:59:01.444Z,19.63
2023-04-01T01:01:31.681Z,23.02
2023-04-01T01:03:58.932Z,21.38
2023-04-01T01:06:44.480Z,20.73
2023-04-01T01:09:22.445Z,22.58
2023-04-01T01:11:56.853Z,19.60
2023-04-01T01:14:42.610Z,21.83
2023-04-01T01:17:31.601Z,27.27
2023-04-01T01:20:26.450Z,17.23
2023-04-01T01:23:09.122Z,22.08
2023-04-01T01:25:46.235Z,15.00
2023-04-01T01:28:24.916Z,21.42
2023-04-01T01:31:38.377Z,17.42
2023-04-01T01:35:04.254Z,16.80
2023-04-01T01:37:32.338Z,16.58
2023-04-01T01:40:36.806Z,16.30
2023-04-01T01:43:46.218Z,12.80
2023-04-01T01:47:05.106Z,17.38
2023-04-01T01:50:08.453Z,19.00
2023-04-01T01:52:37.739Z,17.33
2023-04-01T01:55:26.390Z,14.35
2023-04-01T01:57:53.946Z,21.17
2023-04-01T02:00:21.382Z,13.73
2023-04-01T02:02:49.818Z,13.43
2023-04-01T02:05:22.344Z,15.90
2023-04-01T02:08:15.107Z,13.48
2023-04-01T02:10:45.782Z,14.93
2023-04-01T02:13:28.972Z,14.50
2023-04-01T02:15:59.925Z,15.10
2023-04-01T02:18:27.098Z,14.52
2023-04-01T02:20:54.357Z,20.90
2023-04-01T02:23:21.509Z,12.93
2023-04-01T02:25:50.236Z,16.30
2023-04-01T02:28:21.587Z,11.48
2023-04-01T02:30:51.171Z,12.02
2023-04-01T02:33:20.064Z,13.38
2023-04-01T02:35:50.495Z,12.23
2023-04-01T02:38:17.442Z,14.40
2023-04-01T02:40:50.829Z,14.35
2023-04-01T02:43:18.689Z,19.30
2023-04-01T02:45:45.849Z,12.48
2023-04-01T02:48:14.450Z,15.65
2023-04-01T02:50:41.740Z,15.60
2023-04-01T02:53:09.396Z,15.80
2023-04-01T02:55:36.517Z,14.45
2023-04-01T02:58:03.959Z,16.58
2023-04-01T03:00:31.678Z,16.60
2023-04-01T03:02:58.983Z,17.63
2023-04-01T03:05:26.814Z,13.93
2023-04-01T03:07:53.720Z,13.45
2023-04-01T03:10:21.385Z,13.38
2023-04-01T03:12:48.386Z,19.08
2023-04-01T03:15:15.790Z,17.55
2023-04-01T03:17:43.806Z,17.77
2023-04-01T03:20:12.771Z,18.75
2023-04-01T03:22:42.646Z,14.93
2023-04-01T03:25:11.132Z,17.92
2023-04-01T03:27:40.561Z,16.48
2023-04-01T03:30:10.556Z,18.35
2023-04-01T03:32:46.642Z,18.98
2023-04-01T03:35:13.774Z,17.30
2023-04-01T03:37:41.196Z,19.42
2023-04-01T03:40:08.887Z,21.83
2023-04-01T03:42:36.381Z,17.52
2023-04-01T03:45:04.969Z,15.88
2023-04-01T03:47:32.108Z,15.63
2023-04-01T03:50:02.366Z,20.42
2023-04-01T03:52:32.986Z,17.90
2023-04-01T03:55:00.439Z,15.13
2023-04-01T03:57:28.033Z,16.27
2023-04-01T03:59:59.671Z,22.55
2023-04-01T04:02:27.791Z,20.15
2023-04-01T04:04:55.085Z,20.70
2023-04-01T04:07:22.704Z,15.40
2023-04-01T04:10:00.998Z,21.60
2023-04-01T04:12:28.217Z,17.45
2023-04-01T04:14:55.257Z,15.02
2023-04-01T04:17:22.457Z,16.40
2023-04-01T04:19:49.589Z,20.48
2023-04-01T04:22:17.562Z,22.10
2023-04-01T04:24:44.634Z,19.33
2023-04-01T04:27:14.058Z,19.60
2023-04-01T04:29:56.080Z,16.98
2023-04-01T04:32:23.324Z,14.95
2023-04-01T04:34:50.477Z,18.05
2023-04-01T04:37:19.168Z,17.60
2023-04-01T04:39:46.147Z,17.63
2023-04-01T04:42:13.258Z,13.35
2023-04-01T04:44:41.052Z,15.75
2023-04-01T04:47:08.174Z,15.85
2023-04-01T04:49:35.567Z,15.73
2023-04-01T04:52:07.112Z,17.17
2023-04-01T04:54:34.360Z,13.63
2023-04-01T04:59:35.754Z,16.73
2023-04-01T05:02:11.099Z,16.80
2023-04-01T05:04:38.376Z,16.15
2023-04-01T05:07:09.232Z,14.70
2023-04-01T05:09:36.661Z,15.60
2023-04-01T05:12:04.616Z,14.02
2023-04-01T05:14:51.722Z,17.88
2023-04-01T05:17:18.918Z,12.57
2023-04-01T05:19:46.033Z,14.70
2023-04-01T05:22:13.132Z,13.75
2023-04-01T05:24:41.430Z,12.05
2023-04-01T05:27:08.555Z,14.15
2023-04-01T05:29:39.320Z,15.43
2023-04-01T05:32:11.347Z,14.70
2023-04-01T05:34:38.737Z,17.45
2023-04-01T05:37:06.100Z,16.58
2023-04-01T05:39:37.018Z,16.73
2023-04-01T05:42:04.397Z,15.00
2023-04-01T05:44:31.996Z,16.50
2023-04-01T05:47:08.201Z,13.68
2023-04-01T05:49:36.550Z,17.02
2023-04-01T05:52:06.054Z,12.32
2023-04-01T05:54:36.193Z,18.63
2023-04-01T05:57:03.644Z,17.38
2023-04-01T05:59:32.363Z,13.50
2023-04-01T06:02:00.001Z,16.42
2023-04-01T06:04:33.951Z,10.90
2023-04-01T06:07:01.463Z,17.55
2023-04-01T06:09:31.437Z,10.80
2023-04-01T06:12:43.821Z,13.90
2023-04-01T06:15:16.562Z,13.27
2023-04-01T06:18:14.658Z,12.25
2023-04-01T06:20:59.886Z,11.10
2023-04-01T06:24:04.376Z,8.77
2023-04-01T06:27:06.234Z,11.98
2023-04-01T06:30:04.653Z,13.50
2023-04-01T06:32:55.192Z,12.00
2023-04-01T06:35:28.561Z,10.13
2023-04-01T06:38:30.851Z,11.48
2023-04-01T06:41:31.143Z,10.75
2023-04-01T06:44:02.126Z,15.67
2023-04-01T06:47:00.784Z,13.18
2023-04-01T06:50:28.412Z,14.50
2023-04-01T06:53:22.623Z,14.02
2023-04-01T06:56:13.887Z,15.57
2023-04-01T06:59:18.834Z,10.02
2023-04-01T07:02:11.542Z,16.08
2023-04-01T07:04:46.133Z,19.50
2023-04-01T07:07:44.699Z,16.60
2023-04-01T07:10:29.214Z,11.18
2023-04-01T07:13:25.335Z,11.00
2023-04-01T07:16:06.704Z,12.95
2023-04-01T07:19:04.024Z,13.45
2023-04-01T07:21:54.191Z,12.15
2023-04-01T07:24:37.720Z,9.00
2023-04-01T07:27:15.122Z,16.33
2023-04-01T07:29:44.311Z,11.25
2023-04-01T07:32:25.351Z,11.90
2023-04-01T07:37:48.805Z,11.50
2023-04-01T07:40:46.934Z,13.57
2023-04-01T07:43:49.406Z,10.97
2023-04-01T07:46:27.574Z,12.98
2023-04-01T07:49:01.683Z,14.38
2023-04-01T07:51:59.817Z,11.38
2023-04-01T07:54:48.183Z,11.73
2023-04-01T07:57:20.345Z,16.45
2023-04-01T08:00:07.656Z,10.90
2023-04-01T08:03:29.133Z,12.38
2023-04-01T08:06:00.935Z,13.32
2023-04-01T08:08:51.952Z,14.32
2023-04-01T08:12:02.062Z,11.68
2023-04-01T08:14:57.116Z,14.02
2023-04-01T08:18:30.805Z,15.23
2023-04-01T08:21:12.811Z,10.50
2023-04-01T08:23:46.215Z,12.45
2023-04-01T08:26:46.213Z,17.02
2023-04-01T08:29:19.466Z,11.27
2023-04-01T08:32:10.085Z,10.30
2023-04-01T08:34:40.061Z,15.35
2023-04-01T08:37:27.153Z,11.55
2023-04-01T08:40:11.809Z,13.18
2023-04-01T08:43:07.991Z,15.15
2023-04-01T08:46:01.041Z,12.57
2023-04-01T08:48:43.276Z,11.07
2023-04-01T08:51:27.967Z,12.57
2023-04-01T08:54:27.001Z,7.50
2023-04-01T08:57:42.461Z,10.48
2023-04-01T09:00:53.222Z,10.10
2023-04-01T09:04:32.232Z,10.45
2023-04-01T09:07:43.486Z,7.35
2023-04-01T09:10:26.862Z,10.80
2023-04-01T09:13:09.390Z,9.93
2023-04-01T09:16:15.915Z,9.15
2023-04-01T09:19:00.714Z,6.85
2023-04-01T09:22:00.353Z,8.77
2023-04-01T09:25:07.224Z,9.18
2023-04-01T09:27:55.063Z,6.90
2023-04-01T09:30:36.170Z,8.23
2023-04-01T09:33:28.011Z,9.90
2023-04-01T09:35:58.381Z,6.45
2023-04-01T09:39:13.151Z,8.88
2023-04-01T09:42:09.195Z,10.43
2023-04-01T09:44:58.623Z,11.43
2023-04-01T09:47:37.002Z,6.25
2023-04-01T09:50:07.228Z,6.93
2023-04-01T09:52:46.786Z,4.93
2023-04-01T09:55:46.811Z,7.00
2023-04-01T09:58:43.590Z,12.43
2023-04-01T10:01:51.131Z,8.93
2023-04-01T10:05:13.204Z,11.13
2023-04-01T10:08:17.871Z,7.82
2023-04-01T10:10:51.122Z,8.25
2023-04-01T10:13:47.798Z,13.75
2023-04-01T10:16:35.308Z,8.20
2023-04-01T10:19:41.201Z,9.07
2023-04-01T10:23:03.143Z,7.43
2023-04-01T10:25:43.895Z,10.43
2023-04-01T10:28:36.611Z,10.57
2023-04-01T10:31:45.695Z,9.15
2023-04-01T10:34:21.803Z,7.32
2023-04-01T10:36:57.036Z,7.18
2023-04-01T10:39:53.295Z,7.25
2023-04-01T10:42:55.766Z,10.52
2023-04-01T10:45:58.884Z,5.82
2023-04-01T10:48:45.575Z,13.68
2023-04-01T10:51:34.435Z,7.45
2023-04-01T10:54:40.824Z,8.35
2023-04-01T10:57:38.899Z,9.43
2023-04-01T11:00:50.619Z,10.35
2023-04-01T11:03:59.793Z,8.80
2023-04-01T11:07:08.096Z,9.18
2023-04-01T11:09:50.678Z,9.13
2023-04-01T11:12:32.923Z,7.85
2023-04-01T11:15:22.079Z,7.47
2023-04-01T11:18:24.488Z,11.27
2023-04-01T11:21:05.070Z,10.75
2023-04-01T11:23:44.039Z,11.02
2023-04-01T11:26:15.942Z,9.25
2023-04-01T11:29:11.134Z,8.68
2023-04-01T11:31:48.458Z,8.30
2023-04-01T11:34:49.968Z,8.95
2023-04-01T11:37:26.164Z,4.75
2023-04-01T11:40:48.989Z,6.80
2023-04-01T11:43:48.878Z,9.40
2023-04-01T11:46:47.905Z,11.55
2023-04-01T11:49:37.899Z,6.30
2023-04-01T11:52:28.024Z,7.65
2023-04-01T11:55:07.331Z,9.77
2023-04-01T11:57:49.679Z,10.32
2023-04-01T12:00:47.776Z,10.77
2023-04-01T12:03:53.120Z,9.05
2023-04-01T12:06:29.375Z,6.93
2023-04-01T12:09:10.340Z,9.25
2023-04-01T12:12:00.268Z,6.38
2023-04-01T12:14:27.631Z,5.32
2023-04-01T12:17:22.513Z,10.07
2023-04-01T12:20:27.899Z,8.27
2023-04-01T12:22:54.674Z,11.27
2023-04-01T12:25:47.905Z,12.15
2023-04-01T12:28:17.854Z,12.80
2023-04-01T12:31:06.195Z,8.63
2023-04-01T12:34:01.394Z,8.07
2023-04-01T12:36:42.097Z,7.63
2023-04-01T12:39:40.715Z,8.68
2023-04-01T12:42:32.103Z,8.10
2023-04-01T12:45:33.236Z,8.48
2023-04-01T12:48:18.942Z,7.80
2023-04-01T12:51:23.672Z,11.02
2023-04-01T12:54:28.198Z,13.43
2023-04-01T12:56:55.426Z,10.52
2023-04-01T12:59:37.766Z,10.27
2023-04-01T13:02:23.150Z,9.52
2023-04-01T13:05:17.128Z,13.15
2023-04-01T13:08:13.817Z,6.60
2023-04-01T13:10:59.332Z,8.70
2023-04-01T13:13:40.032Z,14.55
2023-04-01T13:16:18.444Z,8.60
2023-04-01T13:19:09.157Z,6.43
2023-04-01T13:21:36.153Z,10.43
2023-04-01T13:24:23.770Z,8.88
2023-04-01T13:27:21.533Z,7.60
2023-04-01T13:29:57.507Z,8.13
2023-04-01T13:32:49.372Z,7.07
2023-04-01T13:35:37.573Z,9.38
2023-04-01T13:38:21.644Z,8.95
2023-04-01T13:41:16.454Z,7.00
2023-04-01T13:43:49.343Z,7.63
2023-04-01T13:46:53.055Z,8.25
2023-04-01T13:49:33.045Z,7.82
2023-04-01T13:52:12.456Z,8.05
2023-04-01T13:57:38.683Z,9.10
2023-04-01T14:00:34.151Z,7.22
2023-04-01T14:03:30.040Z,7.88
2023-04-01T14:06:03.536Z,8.82
2023-04-01T14:08:45.323Z,10.73
2023-04-01T14:11:18.521Z,12.60
2023-04-01T14:13:51.696Z,11.48
2023-04-01T14:16:40.817Z,9.13
2023-04-01T14:19:34.374Z,10.25
2023-04-01T14:22:29.038Z,13.88
2023-04-01T14:25:23.854Z,10.85
2023-04-01T14:27:56.172Z,10.65
2023-04-01T14:30:57.500Z,14.65
2023-04-01T14:33:40.832Z,9.25
2023-04-01T14:36:19.864Z,8.85
2023-04-01T14:39:10.381Z,5.47
2023-04-01T14:42:06.140Z,7.20
2023-04-01T14:44:42.254Z,9.00
2023-04-01T14:47:18.289Z,10.55
2023-04-01T14:50:10.576Z,9.27
2023-04-01T14:52:41.422Z,10.30
2023-04-01T14:55:44.171Z,11.23
2023-04-01T14:58:18.284Z,7.30
2023-04-01T15:00:55.143Z,8.40
2023-04-01T15:04:12.026Z,6.78
2023-04-01T15:07:13.823Z,7.55
2023-04-01T15:10:05.829Z,7.55
2023-04-01T15:12:34.590Z,11.70
2023-04-01T15:15:41.108Z,11.18
2023-04-01T15:18:45.425Z,6.00
2023-04-01T15:21:22.743Z,6.07
2023-04-01T15:24:07.962Z,10.10
2023-04-01T15:26:41.125Z,5.07
2023-04-01T15:29:58.899Z,4.95
2023-04-01T15:32:25.912Z,6.35
2023-04-01T15:35:21.902Z,3.10
2023-04-01T15:38:10.190Z,7.05
2023-04-01T15:41:09.160Z,7.07
2023-04-01T15:43:54.865Z,8.93
2023-04-01T15:46:51.264Z,9.02
2023-04-01T15:49:45.034Z,10.27
2023-04-01T15:52:45.154Z,6.20
2023-04-01T15:55:38.261Z,4.07
2023-04-01T15:58:32.772Z,5.30
2023-04-01T16:01:08.791Z,3.95
2023-04-01T16:03:57.820Z,6.60
2023-04-01T16:06:57.424Z,6.93
2023-04-01T16:09:49.213Z,10.02
2023-04-01T16:12:27.856Z,9.27
2023-04-01T16:15:10.473Z,7.43
2023-04-01T16:18:04.945Z,8.50
2023-04-01T16:20:57.722Z,8.77
2023-04-01T16:23:50.269Z,7.20
2023-04-01T16:26:27.509Z,8.23
2023-04-01T16:29:00.567Z,9.98
2023-04-01T16:31:44.076Z,10.27
2023-04-01T16:34:36.239Z,9.05
2023-04-01T16:37:21.316Z,8.85
2023-04-01T16:40:03.784Z,8.20
2023-04-01T16:42:52.465Z,8.88
2023-04-01T16:45:38.244Z,7.22
2023-04-01T16:48:19.490Z,6.30
2023-04-01T16:51:10.999Z,5.30
2023-04-01T16:53:49.439Z,5.35
2023-04-01T16:56:24.911Z,6.07
2023-04-01T16:59:08.680Z,6.00
2023-04-01T17:01:58.646Z,5.25
2023-04-01T17:04:31.884Z,4.72
2023-04-01T17:07:21.530Z,6.82
2023-04-01T17:10:06.921Z,4.47
2023-04-01T17:12:33.907Z,4.10
2023-04-01T17:15:06.921Z,3.17
2023-04-01T17:17:55.992Z,6.13
2023-04-01T17:20:43.237Z,4.05
2023-04-01T17:23:23.342Z,4.85
2023-04-01T17:26:03.322Z,4.93
2023-04-01T17:28:43.061Z,4.72
2023-04-01T17:31:24.908Z,3.60
2023-04-01T17:34:13.801Z,5.15
2023-04-01T17:37:18.596Z,2.92
2023-04-01T17:39:57.799Z,4.60
2023-04-01T17:42:48.121Z,3.65
2023-04-01T17:45:23.946Z,3.08
2023-04-01T17:47:51.541Z,3.95
2023-04-01T17:50:37.499Z,6.43
2023-04-01T17:53:23.442Z,4.15
2023-04-01T17:56:01.440Z,3.53
2023-04-01T17:58:43.629Z,4.72
2023-04-01T18:01:21.147Z,7.53
2023-04-01T18:04:17.698Z,8.40
2023-04-01T18:07:41.290Z,8.57
2023-04-01T18:10:47.632Z,8.30
2023-04-01T18:13:42.671Z,8.05
2023-04-01T18:16:19.169Z,7.30
2023-04-01T18:19:15.915Z,8.15
2023-04-01T18:21:51.398Z,6.00
2023-04-01T18:24:24.507Z,5.30
2023-04-01T18:27:02.007Z,4.65
2023-04-01T18:29:28.934Z,5.35
2023-04-01T18:32:10.600Z,47.47
2023-04-01T18:35:10.019Z,6.70
2023-04-01T18:37:56.975Z,5.80
2023-04-01T18:40:31.193Z,6.97
2023-04-01T18:43:24.626Z,4.15
2023-04-01T18:46:13.053Z,8.43
2023-04-01T18:48:49.261Z,8.57
2023-04-01T18:51:22.956Z,3.60
2023-04-01T18:54:11.174Z,5.60
2023-04-01T18:56:45.135Z,6.50
2023-04-01T18:59:28.498Z,5.95
2023-04-01T19:02:30.512Z,6.82
2023-04-01T19:05:02.303Z,8.63
2023-04-01T19:07:44.864Z,8.85
2023-04-01T19:10:22.946Z,10.20
2023-04-01T19:13:11.829Z,8.77
2023-04-01T19:16:01.468Z,6.30
2023-04-01T19:19:00.584Z,5.00
2023-04-01T19:21:30.491Z,4.63
2023-04-01T19:24:47.975Z,4.75
2023-04-01T19:28:00.719Z,2.67
2023-04-01T19:30:58.000Z,2.53
2023-04-01T19:34:18.918Z,2.15
2023-04-01T19:36:57.876Z,4.45
2023-04-01T19:39:31.889Z,1.77
2023-04-01T19:42:13.131Z,2.65
2023-04-01T19:44:52.274Z,3.20
2023-04-01T19:47:35.811Z,3.90
2023-04-01T19:50:36.190Z,3.85
2023-04-01T19:53:33.441Z,2.42
2023-04-01T19:56:09.185Z,2.80
2023-04-01T19:58:55.507Z,5.05
2023-04-01T20:01:44.855Z,6.30
2023-04-01T20:04:22.239Z,4.85
2023-04-01T20:07:07.634Z,6.55
2023-04-01T20:09:43.553Z,3.00
2023-04-01T20:12:58.306Z,2.33
2023-04-01T20:15:34.063Z,3.35
2023-04-01T20:18:23.198Z,2.47
2023-04-01T20:21:19.020Z,2.58
2023-04-01T20:24:07.403Z,4.07
2023-04-01T20:26:43.595Z,6.87
2023-04-01T20:29:22.793Z,4.63
2023-04-01T20:32:06.080Z,4.40
2023-04-01T20:34:57.837Z,3.50
2023-04-01T20:37:36.761Z,5.40
2023-04-01T20:40:23.168Z,6.15
2023-04-01T20:43:12.057Z,3.53
2023-04-01T20:45:59.197Z,5.70
2023-04-01T20:49:04.208Z,5.18
2023-04-01T20:51:35.963Z,5.95
2023-04-01T20:54:14.821Z,7.35
2023-04-01T20:57:06.281Z,6.53
2023-04-01T21:00:05.925Z,4.88
2023-04-01T21:02:45.358Z,3.83
2023-04-01T21:05:30.975Z,3.20
2023-04-01T21:08:23.170Z,3.03
2023-04-01T21:11:16.867Z,4.38
2023-04-01T21:13:59.349Z,6.25
2023-04-01T21:17:05.287Z,2.85
2023-04-01T21:19:41.998Z,2.63
2023-04-01T21:22:27.364Z,2.22
2023-04-01T21:25:01.535Z,2.95
2023-04-01T21:27:40.290Z,4.30
2023-04-01T21:30:44.606Z,2.92
2023-04-01T21:33:21.983Z,2.08
2023-04-01T21:36:35.637Z,3.53
2023-04-01T21:39:26.938Z,3.67
2023-04-01T21:42:06.218Z,3.58
2023-04-01T21:45:07.568Z,5.88
2023-04-01T21:47:34.521Z,1.98
2023-04-01T21:50:13.819Z,2.95
2023-04-01T21:53:12.954Z,3.70
2023-04-01T21:58:09.649Z,2.63
2023-04-01T22:00:37.367Z,4.32
2023-04-01T22:03:27.718Z,2.85
2023-04-01T22:06:04.598Z,9.32
2023-04-01T22:08:43.446Z,4.07
2023-04-01T22:11:33.722Z,2.08
2023-04-01T22:14:27.407Z,3.95
2023-04-01T22:16:57.333Z,4.80
2023-04-01T22:19:36.688Z,4.68
2023-04-01T22:25:01.881Z,3.80
2023-04-01T22:27:43.278Z,2.85
2023-04-01T22:30:25.603Z,4.95
2023-04-01T22:33:17.385Z,3.45
2023-04-01T22:35:56.772Z,6.00
2023-04-01T22:41:42.913Z,15.20
2023-04-01T22:44:42.036Z,10.50
2023-04-01T22:47:40.232Z,9.98
2023-04-01T22:50:25.464Z,15.13
2023-04-01T22:53:08.216Z,11.13
2023-04-01T22:55:39.358Z,6.82
2023-04-01T22:58:33.801Z,6.57
2023-04-01T23:01:07.486Z,6.57
2023-04-01T23:03:41.392Z,5.18
2023-04-01T23:06:27.445Z,4.65
2023-04-01T23:09:27.038Z,5.18
2023-04-01T23:12:07.534Z,3.42
2023-04-01T23:14:45.159Z,3.33
2023-04-01T23:17:26.816Z,3.47
2023-04-01T23:20:07.772Z,5.72
2023-04-01T23:23:06.998Z,4.50
2023-04-01T23:25:55.330Z,2.47
2023-04-01T23:28:51.825Z,4.63
2023-04-01T23:31:40.011Z,9.48
2023-04-01T23:34:06.930Z,3.95
2023-04-01T23:36:40.168Z,0.75
2023-04-01T23:39:33.370Z,0.93
2023-04-01T23:42:05.710Z,4.40
2023-04-01T23:44:34.900Z,0.70
2023-04-01T23:47:04.355Z,1.52
2023-04-01T23:49:37.989Z,3.55
2023-04-01T23:52:14.133Z,1.42
2023-04-01T23:54:55.319Z,1.10
2023-04-01T23:57:28.293Z,2.40
